sensor_id;sensor_type;location;lat;lon;timestamp;P1;durP1;ratioP1;P2;durP2;ratioP2
317;SDS011;146;53.448;10.228;2023-05-24T00:01:28;11.40;;;4.70;;
317;SDS011;146;53.448;10.228;2023-05-24T00:03:55;12.10;;;5.43;;
317;SDS011;146;53.448;10.228;2023-05-24T00:06:23;13.97;;;5.03;;
317;SDS011;146;53.448;10.228;2023-05-24T00:08:53;20.00;;;6.90;;
317;SDS011;146;53.448;10.228;2023-05-24T00:11:20;14.47;;;5.20;;
317;SDS011;146;53.448;10.228;2023-05-24T00:13:47;13.20;;;5.90;;
317;SDS011;146;53.448;10.228;2023-05-24T00:16:23;17.97;;;6.03;;
317;SDS011;146;53.448;10.228;2023-05-24T00:18:51;13.60;;;5.90;;
317;SDS011;146;53.448;10.228;2023-05-24T00:21:19;15.30;;;5.70;;
317;SDS011;146;53.448;10.228;2023-05-24T00:23:48;19.80;;;6.27;;
317;SDS011;146;53.448;10.228;2023-05-24T00:26:19;17.60;;;5.80;;
317;SDS011;146;53.448;10.228;2023-05-24T00:28:48;12.47;;;4.80;;
317;SDS011;146;53.448;10.228;2023-05-24T00:31:15;15.03;;;5.27;;
317;SDS011;146;53.448;10.228;2023-05-24T00:33:45;17.30;;;5.47;;
317;SDS011;146;53.448;10.228;2023-05-24T00:36:13;15.73;;;5.70;;
317;SDS011;146;53.448;10.228;2023-05-24T00:38:43;15.80;;;5.20;;
317;SDS011;146;53.448;10.228;2023-05-24T00:41:10;16.70;;;5.20;;
317;SDS011;146;53.448;10.228;2023-05-24T00:43:40;13.37;;;6.30;;
317;SDS011;146;53.448;10.228;2023-05-24T00:46:14;14.00;;;5.03;;
317;SDS011;146;53.448;10.228;2023-05-24T00:48:43;15.97;;;5.10;;
317;SDS011;146;53.448;10.228;2023-05-24T00:51:22;18.20;;;5.60;;
317;SDS011;146;53.448;10.228;2023-05-24T00:53:51;14.47;;;4.80;;
317;SDS011;146;53.448;10.228;2023-05-24T00:56:18;12.27;;;5.90;;
317;SDS011;146;53.448;10.228;2023-05-24T00:58:46;20.07;;;6.60;;
317;SDS011;146;53.448;10.228;2023-05-24T01:01:14;15.37;;;5.63;;
317;SDS011;146;53.448;10.228;2023-05-24T01:03:41;14.50;;;5.33;;
317;SDS011;146;53.448;10.228;2023-05-24T01:06:08;16.50;;;6.33;;
317;SDS011;146;53.448;10.228;2023-05-24T01:09:01;14.67;;;5.80;;
317;SDS011;146;53.448;10.228;2023-05-24T01:11:47;9.80;;;5.60;;
317;SDS011;146;53.448;10.228;2023-05-24T01:14:25;16.53;;;7.50;;
317;SDS011;146;53.448;10.228;2023-05-24T01:17:00;16.77;;;5.90;;
317;SDS011;146;53.448;10.228;2023-05-24T01:19:47;19.10;;;5.20;;
317;SDS011;146;53.448;10.228;2023-05-24T01:25:30;15.10;;;5.63;;
317;SDS011;146;53.448;10.228;2023-05-24T01:28:18;8.93;;;4.83;;
317;SDS011;146;53.448;10.228;2023-05-24T01:30:50;15.07;;;5.37;;
317;SDS011;146;53.448;10.228;2023-05-24T01:33:20;11.83;;;5.13;;
317;SDS011;146;53.448;10.228;2023-05-24T01:35:47;20.63;;;6.27;;
317;SDS011;146;53.448;10.228;2023-05-24T01:38:20;13.90;;;6.13;;
317;SDS011;146;53.448;10.228;2023-05-24T01:40:47;18.83;;;6.30;;
317;SDS011;146;53.448;10.228;2023-05-24T01:43:25;17.00;;;6.50;;
317;SDS011;146;53.448;10.228;2023-05-24T01:45:59;24.90;;;7.40;;
317;SDS011;146;53.448;10.228;2023-05-24T01:48:53;13.70;;;5.77;;
317;SDS011;146;53.448;10.228;2023-05-24T01:51:32;15.97;;;5.67;;
317;SDS011;146;53.448;10.228;2023-05-24T01:54:04;21.27;;;5.90;;
317;SDS011;146;53.448;10.228;2023-05-24T01:56:32;12.20;;;5.10;;
317;SDS011;146;53.448;10.228;2023-05-24T01:59:02;9.73;;;5.13;;
317;SDS011;146;53.448;10.228;2023-05-24T02:01:29;11.90;;;5.30;;
317;SDS011;146;53.448;10.228;2023-05-24T02:03:56;15.30;;;5.73;;
317;SDS011;146;53.448;10.228;2023-05-24T02:06:27;11.90;;;4.40;;
317;SDS011;146;53.448;10.228;2023-05-24T02:08:54;9.93;;;5.50;;
317;SDS011;146;53.448;10.228;2023-05-24T02:11:21;15.67;;;6.10;;
317;SDS011;146;53.448;10.228;2023-05-24T02:13:48;16.43;;;6.33;;
317;SDS011;146;53.448;10.228;2023-05-24T02:16:26;14.50;;;6.70;;
317;SDS011;146;53.448;10.228;2023-05-24T02:18:54;13.50;;;5.00;;
317;SDS011;146;53.448;10.228;2023-05-24T02:21:21;15.30;;;6.17;;
317;SDS011;146;53.448;10.228;2023-05-24T02:23:53;15.57;;;6.27;;
317;SDS011;146;53.448;10.228;2023-05-24T02:26:23;15.63;;;5.93;;
317;SDS011;146;53.448;10.228;2023-05-24T02:28:50;21.97;;;6.43;;
317;SDS011;146;53.448;10.228;2023-05-24T02:31:16;13.10;;;5.83;;
317;SDS011;146;53.448;10.228;2023-05-24T02:33:45;17.03;;;5.73;;
317;SDS011;146;53.448;10.228;2023-05-24T02:36:11;10.60;;;5.33;;
317;SDS011;146;53.448;10.228;2023-05-24T02:38:38;24.73;;;6.00;;
317;SDS011;146;53.448;10.228;2023-05-24T02:41:11;18.57;;;6.50;;
317;SDS011;146;53.448;10.228;2023-05-24T02:43:47;13.50;;;5.53;;
317;SDS011;146;53.448;10.228;2023-05-24T02:46:14;19.63;;;6.33;;
317;SDS011;146;53.448;10.228;2023-05-24T02:48:51;10.80;;;6.47;;
317;SDS011;146;53.448;10.228;2023-05-24T02:51:21;13.27;;;5.70;;
317;SDS011;146;53.448;10.228;2023-05-24T02:53:48;13.47;;;5.50;;
317;SDS011;146;53.448;10.228;2023-05-24T02:56:20;16.07;;;6.13;;
317;SDS011;146;53.448;10.228;2023-05-24T02:58:50;12.00;;;5.43;;
317;SDS011;146;53.448;10.228;2023-05-24T03:01:18;12.37;;;6.10;;
317;SDS011;146;53.448;10.228;2023-05-24T03:03:45;10.33;;;4.83;;
317;SDS011;146;53.448;10.228;2023-05-24T03:06:16;21.80;;;6.50;;
317;SDS011;146;53.448;10.228;2023-05-24T03:08:43;13.67;;;6.50;;
317;SDS011;146;53.448;10.228;2023-05-24T03:11:10;13.10;;;5.43;;
317;SDS011;146;53.448;10.228;2023-05-24T03:13:40;17.73;;;6.30;;
317;SDS011;146;53.448;10.228;2023-05-24T03:16:11;17.27;;;7.27;;
317;SDS011;146;53.448;10.228;2023-05-24T03:18:38;13.37;;;5.27;;
317;SDS011;146;53.448;10.228;2023-05-24T03:21:13;15.67;;;5.20;;
317;SDS011;146;53.448;10.228;2023-05-24T03:23:42;10.70;;;4.90;;
317;SDS011;146;53.448;10.228;2023-05-24T03:26:15;19.07;;;7.00;;
317;SDS011;146;53.448;10.228;2023-05-24T03:28:48;16.70;;;6.30;;
317;SDS011;146;53.448;10.228;2023-05-24T03:31:16;10.47;;;4.70;;
317;SDS011;146;53.448;10.228;2023-05-24T03:33:47;13.47;;;6.20;;
317;SDS011;146;53.448;10.228;2023-05-24T03:36:14;15.73;;;6.37;;
317;SDS011;146;53.448;10.228;2023-05-24T03:38:48;12.90;;;4.63;;
317;SDS011;146;53.448;10.228;2023-05-24T03:41:15;13.40;;;6.70;;
317;SDS011;146;53.448;10.228;2023-05-24T03:43:44;10.43;;;5.27;;
317;SDS011;146;53.448;10.228;2023-05-24T03:46:10;12.70;;;5.50;;
317;SDS011;146;53.448;10.228;2023-05-24T03:48:40;14.40;;;5.63;;
317;SDS011;146;53.448;10.228;2023-05-24T03:51:07;17.77;;;7.10;;
317;SDS011;146;53.448;10.228;2023-05-24T03:53:34;10.87;;;5.80;;
317;SDS011;146;53.448;10.228;2023-05-24T03:56:08;12.07;;;6.00;;
317;SDS011;146;53.448;10.228;2023-05-24T03:58:35;9.10;;;5.93;;
317;SDS011;146;53.448;10.228;2023-05-24T04:01:02;15.60;;;6.40;;
317;SDS011;146;53.448;10.228;2023-05-24T04:03:29;16.97;;;6.03;;
317;SDS011;146;53.448;10.228;2023-05-24T04:06:00;10.63;;;6.33;;
317;SDS011;146;53.448;10.228;2023-05-24T04:08:36;20.80;;;5.47;;
317;SDS011;146;53.448;10.228;2023-05-24T04:11:05;12.00;;;6.33;;
317;SDS011;146;53.448;10.228;2023-05-24T04:13:33;14.43;;;6.10;;
317;SDS011;146;53.448;10.228;2023-05-24T04:16:00;20.03;;;6.83;;
317;SDS011;146;53.448;10.228;2023-05-24T04:18:29;13.50;;;5.90;;
317;SDS011;146;53.448;10.228;2023-05-24T04:20:56;11.13;;;6.57;;
317;SDS011;146;53.448;10.228;2023-05-24T04:23:23;15.10;;;5.70;;
317;SDS011;146;53.448;10.228;2023-05-24T04:25:56;10.97;;;6.23;;
317;SDS011;146;53.448;10.228;2023-05-24T04:28:24;12.33;;;5.97;;
317;SDS011;146;53.448;10.228;2023-05-24T04:30:57;16.00;;;6.23;;
317;SDS011;146;53.448;10.228;2023-05-24T04:33:24;16.30;;;7.23;;
317;SDS011;146;53.448;10.228;2023-05-24T04:35:58;11.60;;;6.00;;
317;SDS011;146;53.448;10.228;2023-05-24T04:38:26;20.33;;;7.17;;
317;SDS011;146;53.448;10.228;2023-05-24T04:40:56;10.83;;;5.83;;
317;SDS011;146;53.448;10.228;2023-05-24T04:43:30;12.80;;;7.13;;
317;SDS011;146;53.448;10.228;2023-05-24T04:46:00;12.70;;;6.67;;
317;SDS011;146;53.448;10.228;2023-05-24T04:48:31;15.27;;;7.30;;
317;SDS011;146;53.448;10.228;2023-05-24T04:51:00;21.43;;;8.90;;
317;SDS011;146;53.448;10.228;2023-05-24T04:53:32;21.07;;;6.63;;
317;SDS011;146;53.448;10.228;2023-05-24T04:56:04;17.53;;;6.67;;
317;SDS011;146;53.448;10.228;2023-05-24T04:58:35;10.80;;;5.90;;
317;SDS011;146;53.448;10.228;2023-05-24T05:01:02;17.73;;;8.07;;
317;SDS011;146;53.448;10.228;2023-05-24T05:03:32;20.27;;;9.20;;
317;SDS011;146;53.448;10.228;2023-05-24T05:06:02;18.00;;;7.43;;
317;SDS011;146;53.448;10.228;2023-05-24T05:08:29;13.77;;;7.43;;
317;SDS011;146;53.448;10.228;2023-05-24T05:10:56;12.70;;;6.90;;
317;SDS011;146;53.448;10.228;2023-05-24T05:13:26;15.23;;;7.37;;
317;SDS011;146;53.448;10.228;2023-05-24T05:15:55;13.37;;;7.33;;
317;SDS011;146;53.448;10.228;2023-05-24T05:18:22;17.67;;;6.00;;
317;SDS011;146;53.448;10.228;2023-05-24T05:20:48;14.50;;;6.10;;
317;SDS011;146;53.448;10.228;2023-05-24T05:23:16;16.53;;;7.10;;
317;SDS011;146;53.448;10.228;2023-05-24T05:25:43;14.67;;;7.27;;
317;SDS011;146;53.448;10.228;2023-05-24T05:28:13;17.47;;;7.73;;
317;SDS011;146;53.448;10.228;2023-05-24T05:30:39;15.33;;;6.73;;
317;SDS011;146;53.448;10.228;2023-05-24T05:33:11;13.23;;;7.10;;
317;SDS011;146;53.448;10.228;2023-05-24T05:35:43;16.57;;;7.43;;
317;SDS011;146;53.448;10.228;2023-05-24T05:38:52;11.50;;;6.37;;
317;SDS011;146;53.448;10.228;2023-05-24T05:41:19;12.57;;;5.90;;
317;SDS011;146;53.448;10.228;2023-05-24T05:43:46;13.70;;;6.63;;
317;SDS011;146;53.448;10.228;2023-05-24T05:46:21;14.87;;;6.70;;
317;SDS011;146;53.448;10.228;2023-05-24T05:48:49;11.90;;;6.63;;
317;SDS011;146;53.448;10.228;2023-05-24T05:51:16;9.27;;;6.70;;
317;SDS011;146;53.448;10.228;2023-05-24T05:53:55;13.23;;;6.33;;
317;SDS011;146;53.448;10.228;2023-05-24T05:56:22;17.37;;;7.57;;
317;SDS011;146;53.448;10.228;2023-05-24T05:58:57;12.23;;;7.57;;
317;SDS011;146;53.448;10.228;2023-05-24T06:01:23;11.20;;;7.27;;
317;SDS011;146;53.448;10.228;2023-05-24T06:03:55;15.20;;;8.27;;
317;SDS011;146;53.448;10.228;2023-05-24T06:06:24;13.10;;;6.23;;
317;SDS011;146;53.448;10.228;2023-05-24T06:08:51;17.30;;;7.90;;
317;SDS011;146;53.448;10.228;2023-05-24T06:11:24;12.97;;;8.43;;
317;SDS011;146;53.448;10.228;2023-05-24T06:13:55;13.23;;;7.10;;
317;SDS011;146;53.448;10.228;2023-05-24T06:16:24;15.47;;;8.50;;
317;SDS011;146;53.448;10.228;2023-05-24T06:18:51;15.97;;;8.10;;
317;SDS011;146;53.448;10.228;2023-05-24T06:21:19;15.63;;;8.53;;
317;SDS011;146;53.448;10.228;2023-05-24T06:23:49;12.73;;;7.50;;
317;SDS011;146;53.448;10.228;2023-05-24T06:26:24;21.17;;;9.67;;
317;SDS011;146;53.448;10.228;2023-05-24T06:28:58;14.93;;;8.77;;
317;SDS011;146;53.448;10.228;2023-05-24T06:31:27;22.27;;;10.10;;
317;SDS011;146;53.448;10.228;2023-05-24T06:33:54;12.73;;;8.60;;
317;SDS011;146;53.448;10.228;2023-05-24T06:36:22;12.50;;;8.73;;
317;SDS011;146;53.448;10.228;2023-05-24T06:39:01;14.33;;;9.30;;
317;SDS011;146;53.448;10.228;2023-05-24T06:41:29;14.77;;;8.40;;
317;SDS011;146;53.448;10.228;2023-05-24T06:43:56;13.17;;;8.60;;
317;SDS011;146;53.448;10.228;2023-05-24T06:46:25;24.27;;;8.87;;
317;SDS011;146;53.448;10.228;2023-05-24T06:48:55;14.07;;;7.90;;
317;SDS011;146;53.448;10.228;2023-05-24T06:51:26;16.80;;;8.50;;
317;SDS011;146;53.448;10.228;2023-05-24T06:53:53;13.47;;;7.93;;
317;SDS011;146;53.448;10.228;2023-05-24T06:56:26;11.03;;;8.23;;
317;SDS011;146;53.448;10.228;2023-05-24T06:58:52;20.47;;;10.07;;
317;SDS011;146;53.448;10.228;2023-05-24T07:01:20;15.70;;;8.80;;
317;SDS011;146;53.448;10.228;2023-05-24T07:03:50;14.90;;;8.50;;
317;SDS011;146;53.448;10.228;2023-05-24T07:06:20;18.27;;;10.00;;
317;SDS011;146;53.448;10.228;2023-05-24T07:08:51;16.47;;;8.60;;
317;SDS011;146;53.448;10.228;2023-05-24T07:11:18;11.60;;;8.53;;
317;SDS011;146;53.448;10.228;2023-05-24T07:13:47;16.33;;;9.30;;
317;SDS011;146;53.448;10.228;2023-05-24T07:16:20;13.90;;;8.93;;
317;SDS011;146;53.448;10.228;2023-05-24T07:18:47;11.27;;;8.30;;
317;SDS011;146;53.448;10.228;2023-05-24T07:21:13;16.10;;;8.90;;
317;SDS011;146;53.448;10.228;2023-05-24T07:23:46;16.40;;;8.47;;
317;SDS011;146;53.448;10.228;2023-05-24T07:26:25;18.60;;;9.27;;
317;SDS011;146;53.448;10.228;2023-05-24T07:28:55;12.10;;;8.10;;
317;SDS011;146;53.448;10.228;2023-05-24T07:31:21;16.60;;;9.20;;
317;SDS011;146;53.448;10.228;2023-05-24T07:33:48;17.63;;;9.00;;
317;SDS011;146;53.448;10.228;2023-05-24T07:36:15;16.30;;;8.70;;
317;SDS011;146;53.448;10.228;2023-05-24T07:38:42;17.50;;;8.30;;
317;SDS011;146;53.448;10.228;2023-05-24T07:41:12;17.73;;;9.40;;
317;SDS011;146;53.448;10.228;2023-05-24T07:43:40;20.97;;;9.33;;
317;SDS011;146;53.448;10.228;2023-05-24T07:46:07;18.03;;;8.20;;
317;SDS011;146;53.448;10.228;2023-05-24T07:48:43;19.13;;;8.83;;
317;SDS011;146;53.448;10.228;2023-05-24T07:51:12;18.20;;;7.70;;
317;SDS011;146;53.448;10.228;2023-05-24T07:53:49;12.60;;;9.10;;
317;SDS011;146;53.448;10.228;2023-05-24T07:56:22;15.03;;;7.90;;
317;SDS011;146;53.448;10.228;2023-05-24T07:58:51;18.70;;;8.37;;
317;SDS011;146;53.448;10.228;2023-05-24T08:01:23;18.70;;;9.53;;
317;SDS011;146;53.448;10.228;2023-05-24T08:03:50;10.73;;;7.10;;
317;SDS011;146;53.448;10.228;2023-05-24T08:06:19;16.10;;;8.17;;
317;SDS011;146;53.448;10.228;2023-05-24T08:08:56;14.37;;;7.90;;
317;SDS011;146;53.448;10.228;2023-05-24T08:11:22;17.40;;;8.50;;
317;SDS011;146;53.448;10.228;2023-05-24T08:13:54;16.60;;;7.67;;
317;SDS011;146;53.448;10.228;2023-05-24T08:16:21;19.40;;;8.37;;
317;SDS011;146;53.448;10.228;2023-05-24T08:19:02;11.30;;;7.80;;
317;SDS011;146;53.448;10.228;2023-05-24T08:21:28;15.17;;;6.83;;
317;SDS011;146;53.448;10.228;2023-05-24T08:24:01;11.97;;;6.80;;
317;SDS011;146;53.448;10.228;2023-05-24T08:26:28;10.30;;;6.90;;
317;SDS011;146;53.448;10.228;2023-05-24T08:29:03;21.13;;;7.03;;
317;SDS011;146;53.448;10.228;2023-05-24T08:31:33;20.93;;;8.77;;
317;SDS011;146;53.448;10.228;2023-05-24T08:34:00;20.63;;;8.40;;
317;SDS011;146;53.448;10.228;2023-05-24T08:36:27;15.10;;;7.50;;
317;SDS011;146;53.448;10.228;2023-05-24T08:38:54;14.17;;;7.00;;
317;SDS011;146;53.448;10.228;2023-05-24T08:41:23;16.63;;;8.57;;
317;SDS011;146;53.448;10.228;2023-05-24T08:43:51;15.27;;;8.57;;
317;SDS011;146;53.448;10.228;2023-05-24T08:46:24;17.23;;;8.20;;
317;SDS011;146;53.448;10.228;2023-05-24T08:48:51;10.87;;;6.20;;
317;SDS011;146;53.448;10.228;2023-05-24T08:51:21;9.60;;;7.00;;
317;SDS011;146;53.448;10.228;2023-05-24T08:53:51;12.50;;;6.33;;
317;SDS011;146;53.448;10.228;2023-05-24T08:56:20;12.17;;;5.53;;
317;SDS011;146;53.448;10.228;2023-05-24T08:58:49;11.53;;;6.50;;
317;SDS011;146;53.448;10.228;2023-05-24T09:01:18;9.10;;;5.83;;
317;SDS011;146;53.448;10.228;2023-05-24T09:03:46;13.60;;;6.00;;
317;SDS011;146;53.448;10.228;2023-05-24T09:06:17;13.67;;;6.17;;
317;SDS011;146;53.448;10.228;2023-05-24T09:08:45;10.80;;;6.30;;
317;SDS011;146;53.448;10.228;2023-05-24T09:11:14;9.70;;;5.97;;
317;SDS011;146;53.448;10.228;2023-05-24T09:13:41;11.77;;;6.80;;
317;SDS011;146;53.448;10.228;2023-05-24T09:16:14;11.83;;;5.70;;
317;SDS011;146;53.448;10.228;2023-05-24T09:18:41;13.30;;;6.00;;
317;SDS011;146;53.448;10.228;2023-05-24T09:21:09;11.43;;;5.93;;
317;SDS011;146;53.448;10.228;2023-05-24T09:23:43;9.70;;;5.70;;
317;SDS011;146;53.448;10.228;2023-05-24T09:26:10;12.67;;;7.43;;
317;SDS011;146;53.448;10.228;2023-05-24T09:28:41;15.70;;;6.93;;
317;SDS011;146;53.448;10.228;2023-05-24T09:31:13;12.30;;;5.30;;
317;SDS011;146;53.448;10.228;2023-05-24T09:33:42;19.97;;;6.30;;
317;SDS011;146;53.448;10.228;2023-05-24T09:36:17;13.90;;;6.57;;
317;SDS011;146;53.448;10.228;2023-05-24T09:38:44;12.23;;;5.90;;
317;SDS011;146;53.448;10.228;2023-05-24T09:41:30;9.97;;;6.37;;
317;SDS011;146;53.448;10.228;2023-05-24T09:43:57;15.53;;;5.87;;
317;SDS011;146;53.448;10.228;2023-05-24T09:46:36;10.83;;;5.60;;
317;SDS011;146;53.448;10.228;2023-05-24T09:49:03;12.20;;;6.73;;
317;SDS011;146;53.448;10.228;2023-05-24T09:51:36;15.27;;;5.80;;
317;SDS011;146;53.448;10.228;2023-05-24T09:54:03;10.13;;;6.03;;
317;SDS011;146;53.448;10.228;2023-05-24T09:56:38;14.17;;;5.70;;
317;SDS011;146;53.448;10.228;2023-05-24T09:59:08;15.27;;;7.53;;
317;SDS011;146;53.448;10.228;2023-05-24T10:01:44;9.03;;;4.93;;
317;SDS011;146;53.448;10.228;2023-05-24T10:04:14;13.93;;;6.70;;
317;SDS011;146;53.448;10.228;2023-05-24T10:06:43;11.80;;;4.90;;
317;SDS011;146;53.448;10.228;2023-05-24T10:09:12;13.43;;;6.00;;
317;SDS011;146;53.448;10.228;2023-05-24T10:11:39;13.17;;;5.30;;
317;SDS011;146;53.448;10.228;2023-05-24T10:14:08;15.93;;;6.00;;
317;SDS011;146;53.448;10.228;2023-05-24T10:16:38;14.93;;;6.90;;
317;SDS011;146;53.448;10.228;2023-05-24T10:19:07;16.73;;;5.73;;
317;SDS011;146;53.448;10.228;2023-05-24T10:21:35;10.53;;;7.30;;
317;SDS011;146;53.448;10.228;2023-05-24T10:26:52;8.77;;;5.50;;
317;SDS011;146;53.448;10.228;2023-05-24T10:29:26;14.90;;;6.37;;
317;SDS011;146;53.448;10.228;2023-05-24T10:32:03;9.50;;;5.37;;
317;SDS011;146;53.448;10.228;2023-05-24T10:34:34;16.77;;;5.20;;
317;SDS011;146;53.448;10.228;2023-05-24T10:37:04;13.70;;;5.67;;
317;SDS011;146;53.448;10.228;2023-05-24T10:39:35;9.10;;;5.40;;
317;SDS011;146;53.448;10.228;2023-05-24T10:42:03;7.13;;;4.77;;
317;SDS011;146;53.448;10.228;2023-05-24T10:44:37;10.00;;;6.47;;
317;SDS011;146;53.448;10.228;2023-05-24T10:47:10;6.37;;;4.40;;
317;SDS011;146;53.448;10.228;2023-05-24T10:49:38;11.50;;;5.23;;
317;SDS011;146;53.448;10.228;2023-05-24T10:52:15;9.00;;;4.30;;
317;SDS011;146;53.448;10.228;2023-05-24T10:55:02;5.60;;;4.60;;
317;SDS011;146;53.448;10.228;2023-05-24T10:57:32;11.57;;;5.07;;
317;SDS011;146;53.448;10.228;2023-05-24T11:02:58;7.90;;;4.87;;
317;SDS011;146;53.448;10.228;2023-05-24T11:05:31;9.70;;;4.93;;
317;SDS011;146;53.448;10.228;2023-05-24T11:08:00;10.07;;;4.50;;
317;SDS011;146;53.448;10.228;2023-05-24T11:10:34;6.40;;;4.37;;
317;SDS011;146;53.448;10.228;2023-05-24T11:13:03;9.30;;;5.17;;
317;SDS011;146;53.448;10.228;2023-05-24T11:15:33;7.73;;;4.63;;
317;SDS011;146;53.448;10.228;2023-05-24T11:18:13;11.83;;;5.37;;
317;SDS011;146;53.448;10.228;2023-05-24T11:20:41;13.60;;;7.27;;
317;SDS011;146;53.448;10.228;2023-05-24T11:23:08;8.40;;;4.90;;
317;SDS011;146;53.448;10.228;2023-05-24T11:25:37;8.83;;;4.60;;
317;SDS011;146;53.448;10.228;2023-05-24T11:28:07;8.30;;;5.70;;
317;SDS011;146;53.448;10.228;2023-05-24T11:30:40;6.73;;;5.00;;
317;SDS011;146;53.448;10.228;2023-05-24T11:33:13;8.13;;;5.07;;
317;SDS011;146;53.448;10.228;2023-05-24T11:35:40;13.33;;;5.30;;
317;SDS011;146;53.448;10.228;2023-05-24T11:38:10;9.23;;;4.90;;
317;SDS011;146;53.448;10.228;2023-05-24T11:40:40;11.27;;;5.57;;
317;SDS011;146;53.448;10.228;2023-05-24T11:43:10;8.80;;;4.77;;
317;SDS011;146;53.448;10.228;2023-05-24T11:45:38;13.33;;;5.33;;
317;SDS011;146;53.448;10.228;2023-05-24T11:48:07;8.70;;;4.30;;
317;SDS011;146;53.448;10.228;2023-05-24T11:50:40;8.37;;;5.10;;
317;SDS011;146;53.448;10.228;2023-05-24T11:53:08;11.03;;;5.00;;
317;SDS011;146;53.448;10.228;2023-05-24T11:55:36;7.17;;;4.50;;
317;SDS011;146;53.448;10.228;2023-05-24T11:58:09;12.67;;;5.43;;
317;SDS011;146;53.448;10.228;2023-05-24T12:00:41;9.47;;;5.03;;
317;SDS011;146;53.448;10.228;2023-05-24T12:03:08;13.30;;;5.37;;
317;SDS011;146;53.448;10.228;2023-05-24T12:05:37;5.40;;;4.20;;
317;SDS011;146;53.448;10.228;2023-05-24T12:08:04;6.67;;;5.27;;
317;SDS011;146;53.448;10.228;2023-05-24T12:10:33;6.83;;;4.77;;
317;SDS011;146;53.448;10.228;2023-05-24T12:13:04;6.30;;;4.30;;
317;SDS011;146;53.448;10.228;2023-05-24T12:15:33;7.90;;;4.10;;
317;SDS011;146;53.448;10.228;2023-05-24T12:18:03;10.03;;;4.70;;
317;SDS011;146;53.448;10.228;2023-05-24T12:20:33;7.37;;;4.13;;
317;SDS011;146;53.448;10.228;2023-05-24T12:23:00;8.17;;;5.10;;
317;SDS011;146;53.448;10.228;2023-05-24T12:25:26;10.00;;;4.53;;
317;SDS011;146;53.448;10.228;2023-05-24T12:27:53;8.50;;;4.77;;
317;SDS011;146;53.448;10.228;2023-05-24T12:30:24;10.03;;;4.63;;
317;SDS011;146;53.448;10.228;2023-05-24T12:32:53;7.47;;;4.67;;
317;SDS011;146;53.448;10.228;2023-05-24T12:35:23;8.07;;;5.17;;
317;SDS011;146;53.448;10.228;2023-05-24T12:37:57;11.57;;;5.47;;
317;SDS011;146;53.448;10.228;2023-05-24T12:40:25;6.13;;;5.43;;
317;SDS011;146;53.448;10.228;2023-05-24T12:42:52;11.97;;;6.00;;
317;SDS011;146;53.448;10.228;2023-05-24T12:45:21;9.90;;;6.57;;
317;SDS011;146;53.448;10.228;2023-05-24T12:47:50;10.53;;;6.13;;
317;SDS011;146;53.448;10.228;2023-05-24T12:50:25;9.60;;;7.17;;
317;SDS011;146;53.448;10.228;2023-05-24T12:52:52;8.30;;;5.53;;
317;SDS011;146;53.448;10.228;2023-05-24T12:55:19;10.70;;;7.00;;
317;SDS011;146;53.448;10.228;2023-05-24T12:57:50;12.43;;;7.60;;
317;SDS011;146;53.448;10.228;2023-05-24T13:00:18;10.60;;;5.80;;
317;SDS011;146;53.448;10.228;2023-05-24T13:02:49;10.50;;;6.47;;
317;SDS011;146;53.448;10.228;2023-05-24T13:05:58;6.53;;;5.67;;
317;SDS011;146;53.448;10.228;2023-05-24T13:08:34;8.07;;;6.27;;
317;SDS011;146;53.448;10.228;2023-05-24T13:11:01;8.83;;;5.63;;
317;SDS011;146;53.448;10.228;2023-05-24T13:13:34;9.77;;;5.27;;
317;SDS011;146;53.448;10.228;2023-05-24T13:16:06;11.73;;;6.07;;
317;SDS011;146;53.448;10.228;2023-05-24T13:18:34;14.90;;;6.63;;
317;SDS011;146;53.448;10.228;2023-05-24T13:21:06;9.97;;;5.93;;
317;SDS011;146;53.448;10.228;2023-05-24T13:23:39;7.50;;;5.70;;
317;SDS011;146;53.448;10.228;2023-05-24T13:26:07;13.27;;;6.30;;
317;SDS011;146;53.448;10.228;2023-05-24T13:28:34;9.37;;;5.40;;
317;SDS011;146;53.448;10.228;2023-05-24T13:31:01;7.03;;;5.37;;
317;SDS011;146;53.448;10.228;2023-05-24T13:33:28;7.13;;;5.00;;
317;SDS011;146;53.448;10.228;2023-05-24T13:35:59;9.80;;;6.53;;
317;SDS011;146;53.448;10.228;2023-05-24T13:38:34;9.00;;;6.00;;
317;SDS011;146;53.448;10.228;2023-05-24T13:41:04;8.90;;;5.00;;
317;SDS011;146;53.448;10.228;2023-05-24T13:43:45;7.93;;;6.80;;
317;SDS011;146;53.448;10.228;2023-05-24T13:46:12;10.27;;;6.27;;
317;SDS011;146;53.448;10.228;2023-05-24T13:48:39;10.93;;;4.90;;
317;SDS011;146;53.448;10.228;2023-05-24T13:51:09;10.60;;;6.57;;
317;SDS011;146;53.448;10.228;2023-05-24T13:53:37;8.30;;;6.63;;
317;SDS011;146;53.448;10.228;2023-05-24T13:56:07;8.90;;;6.00;;
317;SDS011;146;53.448;10.228;2023-05-24T13:58:34;10.00;;;5.40;;
317;SDS011;146;53.448;10.228;2023-05-24T14:01:00;10.97;;;6.87;;
317;SDS011;146;53.448;10.228;2023-05-24T14:03:27;11.03;;;6.70;;
317;SDS011;146;53.448;10.228;2023-05-24T14:05:56;6.97;;;5.80;;
317;SDS011;146;53.448;10.228;2023-05-24T14:08:25;13.00;;;6.97;;
317;SDS011;146;53.448;10.228;2023-05-24T14:10:56;8.43;;;7.53;;
317;SDS011;146;53.448;10.228;2023-05-24T14:13:23;13.20;;;7.23;;
317;SDS011;146;53.448;10.228;2023-05-24T14:15:50;10.17;;;7.53;;
317;SDS011;146;53.448;10.228;2023-05-24T14:18:20;9.67;;;7.07;;
317;SDS011;146;53.448;10.228;2023-05-24T14:20:49;6.50;;;5.53;;
317;SDS011;146;53.448;10.228;2023-05-24T14:23:16;13.23;;;6.80;;
317;SDS011;146;53.448;10.228;2023-05-24T14:25:46;12.13;;;6.90;;
317;SDS011;146;53.448;10.228;2023-05-24T14:28:15;6.87;;;5.47;;
317;SDS011;146;53.448;10.228;2023-05-24T14:30:42;7.43;;;5.57;;
317;SDS011;146;53.448;10.228;2023-05-24T14:33:18;8.80;;;5.90;;
317;SDS011;146;53.448;10.228;2023-05-24T14:35:50;9.97;;;6.77;;
317;SDS011;146;53.448;10.228;2023-05-24T14:38:17;13.50;;;6.90;;
317;SDS011;146;53.448;10.228;2023-05-24T14:40:47;9.17;;;6.50;;
317;SDS011;146;53.448;10.228;2023-05-24T14:43:22;7.43;;;6.20;;
317;SDS011;146;53.448;10.228;2023-05-24T14:45:49;9.17;;;6.30;;
317;SDS011;146;53.448;10.228;2023-05-24T14:48:18;9.77;;;5.93;;
317;SDS011;146;53.448;10.228;2023-05-24T14:50:45;14.03;;;6.63;;
317;SDS011;146;53.448;10.228;2023-05-24T14:53:12;8.60;;;6.60;;
317;SDS011;146;53.448;10.228;2023-05-24T14:55:39;8.80;;;5.50;;
317;SDS011;146;53.448;10.228;2023-05-24T14:58:09;7.10;;;5.80;;
317;SDS011;146;53.448;10.228;2023-05-24T15:00:38;10.50;;;5.93;;
317;SDS011;146;53.448;10.228;2023-05-24T15:03:06;10.23;;;5.57;;
317;SDS011;146;53.448;10.228;2023-05-24T15:05:33;8.33;;;6.93;;
317;SDS011;146;53.448;10.228;2023-05-24T15:08:10;11.83;;;6.03;;
317;SDS011;146;53.448;10.228;2023-05-24T15:10:38;8.00;;;5.80;;
317;SDS011;146;53.448;10.228;2023-05-24T15:13:07;8.60;;;6.13;;
317;SDS011;146;53.448;10.228;2023-05-24T15:15:34;10.60;;;6.53;;
317;SDS011;146;53.448;10.228;2023-05-24T15:18:11;12.77;;;6.93;;
317;SDS011;146;53.448;10.228;2023-05-24T15:20:41;11.20;;;6.93;;
317;SDS011;146;53.448;10.228;2023-05-24T15:23:08;9.90;;;7.33;;
317;SDS011;146;53.448;10.228;2023-05-24T15:25:41;11.47;;;7.03;;
317;SDS011;146;53.448;10.228;2023-05-24T15:28:20;10.47;;;6.80;;
317;SDS011;146;53.448;10.228;2023-05-24T15:30:50;11.40;;;6.83;;
317;SDS011;146;53.448;10.228;2023-05-24T15:33:18;11.60;;;7.10;;
317;SDS011;146;53.448;10.228;2023-05-24T15:35:45;11.20;;;6.97;;
317;SDS011;146;53.448;10.228;2023-05-24T15:38:12;10.30;;;6.60;;
317;SDS011;146;53.448;10.228;2023-05-24T15:40:42;14.50;;;7.57;;
317;SDS011;146;53.448;10.228;2023-05-24T15:43:10;8.50;;;6.43;;
317;SDS011;146;53.448;10.228;2023-05-24T15:45:37;11.90;;;7.63;;